createdAt,value
2022-11-11T00:04:42.478Z,5.90
2022-11-11T00:09:43.960Z,5.86
2022-11-11T00:14:45.526Z,5.76
2022-11-11T00:20:05.488Z,5.66
2022-11-11T00:25:07.845Z,5.64
2022-11-11T00:30:09.993Z,5.63
2022-11-11T00:35:30.447Z,5.62
2022-11-11T00:40:31.934Z,5.56
2022-11-11T00:45:33.443Z,5.48
2022-11-11T00:50:53.634Z,5.43
2022-11-11T00:55:56.583Z,5.40
2022-11-11T01:00:58.095Z,5.40
2022-11-11T01:06:04.531Z,5.41
2022-11-11T01:11:14.759Z,5.41
2022-11-11T01:16:23.446Z,5.46
2022-11-11T01:21:26.071Z,5.43
2022-11-11T01:26:31.442Z,5.32
2022-11-11T01:31:33.460Z,5.26
2022-11-11T01:36:35.069Z,5.28
2022-11-11T01:41:38.264Z,5.32
2022-11-11T01:47:04.361Z,5.32
2022-11-11T01:52:18.320Z,5.24
2022-11-11T01:57:27.750Z,5.14
2022-11-11T02:03:09.747Z,5.14
2022-11-11T02:08:32.639Z,5.13
2022-11-11T02:13:57.406Z,5.21
2022-11-11T02:18:58.953Z,5.37
2022-11-11T02:24:11.115Z,5.51
2022-11-11T02:29:16.977Z,5.61
2022-11-11T02:34:18.456Z,5.68
2022-11-11T02:39:27.184Z,5.71
2022-11-11T02:44:33.326Z,5.65
2022-11-11T02:49:35.021Z,5.68
2022-11-11T02:54:36.576Z,5.73
2022-11-11T02:59:40.546Z,5.81
2022-11-11T03:04:42.319Z,5.80
2022-11-11T03:09:43.810Z,5.70
2022-11-11T03:14:45.518Z,5.67
2022-11-11T03:19:47.240Z,5.61
2022-11-11T03:25:07.126Z,5.56
2022-11-11T03:30:09.062Z,5.56
2022-11-11T03:35:10.525Z,5.68
2022-11-11T03:40:12.381Z,5.86
2022-11-11T03:45:13.839Z,6.04
2022-11-11T03:50:15.302Z,6.06
2022-11-11T03:55:16.869Z,6.07
2022-11-11T04:00:21.893Z,6.12
2022-11-11T04:05:41.712Z,6.10
2022-11-11T04:10:43.231Z,6.14
2022-11-11T04:16:03.427Z,6.21
2022-11-11T04:21:23.145Z,6.20
2022-11-11T04:26:24.643Z,6.22
2022-11-11T04:31:26.153Z,6.27
2022-11-11T04:36:27.658Z,6.30
2022-11-11T04:41:53.682Z,6.39
2022-11-11T04:46:50.502Z,6.40
2022-11-11T04:52:12.417Z,6.44
2022-11-11T04:57:13.920Z,6.49
2022-11-11T05:02:34.146Z,6.50
2022-11-11T05:08:07.923Z,6.50
2022-11-11T05:13:27.907Z,6.49
2022-11-11T05:19:02.296Z,6.48
2022-11-11T05:24:22.629Z,6.57
2022-11-11T05:29:24.096Z,6.51
2022-11-11T05:34:25.576Z,6.59
2022-11-11T05:39:27.053Z,6.67
2022-11-11T05:44:28.560Z,6.53
2022-11-11T05:49:30.442Z,6.43
2022-11-11T05:54:31.963Z,6.39
2022-11-11T05:59:33.640Z,6.32
2022-11-11T06:04:35.999Z,6.26
2022-11-11T06:09:37.442Z,6.24
2022-11-11T06:14:38.992Z,6.21
2022-11-11T06:19:40.495Z,6.07
2022-11-11T06:24:41.957Z,6.15
2022-11-11T06:29:43.451Z,6.23
2022-11-11T06:34:44.902Z,6.27
2022-11-11T06:39:46.398Z,6.44
2022-11-11T06:44:47.867Z,6.53
2022-11-11T06:49:49.325Z,6.53
2022-11-11T06:54:50.793Z,6.55
2022-11-11T06:59:52.283Z,6.59
2022-11-11T07:04:53.838Z,6.62
2022-11-11T07:09:55.843Z,6.66
2022-11-11T07:14:57.338Z,6.77
2022-11-11T07:19:58.922Z,6.69
2022-11-11T07:25:00.491Z,6.64
2022-11-11T07:30:01.972Z,6.70
2022-11-11T07:35:04.414Z,6.90
2022-11-11T07:40:06.682Z,7.18
2022-11-11T07:45:10.494Z,7.18
2022-11-11T07:50:12.871Z,7.24
2022-11-11T07:55:15.200Z,7.44
2022-11-11T08:00:17.164Z,7.69
2022-11-11T08:05:19.298Z,7.82
2022-11-11T08:10:20.850Z,7.83
2022-11-11T08:15:22.434Z,7.91
2022-11-11T08:20:23.963Z,7.99
2022-11-11T08:25:26.304Z,8.10
2022-11-11T08:30:28.023Z,8.21
2022-11-11T08:35:30.443Z,8.23
2022-11-11T08:40:31.930Z,8.32
2022-11-11T08:45:33.709Z,8.45
2022-11-11T08:50:35.177Z,8.62
2022-11-11T08:55:37.762Z,8.59
2022-11-11T09:00:39.560Z,8.77
2022-11-11T09:05:41.638Z,9.10
2022-11-11T09:10:43.293Z,9.41
2022-11-11T09:15:44.951Z,9.61
2022-11-11T09:20:46.573Z,9.83
2022-11-11T09:25:48.744Z,10.07
2022-11-11T09:30:50.407Z,10.15
2022-11-11T09:35:52.016Z,10.05
2022-11-11T09:41:10.149Z,10.02
2022-11-11T09:46:36.723Z,10.10
2022-11-11T09:51:44.414Z,10.08
2022-11-11T09:56:46.509Z,9.96
2022-11-11T10:01:54.063Z,10.25
2022-11-11T10:07:03.516Z,10.38
2022-11-11T10:12:14.328Z,10.53
2022-11-11T10:17:40.885Z,10.42
2022-11-11T10:22:43.398Z,10.44
2022-11-11T10:27:47.471Z,10.56
2022-11-11T10:32:59.589Z,10.56
2022-11-11T10:38:09.899Z,10.24
2022-11-11T10:43:31.672Z,9.79
2022-11-11T10:48:51.261Z,9.60
2022-11-11T10:54:03.344Z,9.66
2022-11-11T10:59:14.171Z,9.80
2022-11-11T11:04:29.062Z,10.03
2022-11-11T11:09:42.054Z,9.92
2022-11-11T11:14:47.918Z,10.24
2022-11-11T11:20:19.651Z,10.84
2022-11-11T11:25:22.311Z,10.99
2022-11-11T11:30:26.437Z,11.08
2022-11-11T11:35:40.693Z,10.55
2022-11-11T11:40:59.304Z,10.42
2022-11-11T11:46:08.402Z,10.51
2022-11-11T11:51:34.090Z,10.74
2022-11-11T11:56:42.502Z,11.12
2022-11-11T12:02:23.240Z,11.22
2022-11-11T12:07:50.145Z,11.30
2022-11-11T12:13:01.670Z,11.44
2022-11-11T12:18:22.925Z,11.44
2022-11-11T12:23:46.430Z,11.14
2022-11-11T12:28:53.702Z,11.16
2022-11-11T12:34:10.395Z,11.21
2022-11-11T12:39:26.592Z,11.23
2022-11-11T12:44:46.379Z,11.41
2022-11-11T12:50:08.595Z,11.50
2022-11-11T12:55:16.324Z,11.49
2022-11-11T13:00:20.524Z,11.44
2022-11-11T13:05:27.848Z,11.54
2022-11-11T13:10:52.752Z,11.49
2022-11-11T13:15:56.480Z,11.21
2022-11-11T13:21:07.134Z,10.77
2022-11-11T13:26:25.780Z,10.31
2022-11-11T13:31:27.432Z,10.03
2022-11-11T13:36:32.000Z,10.13
2022-11-11T13:41:38.265Z,10.34
2022-11-11T13:46:48.569Z,10.32
2022-11-11T13:51:59.527Z,10.32
2022-11-11T13:57:21.195Z,10.14
2022-11-11T14:02:22.795Z,10.15
2022-11-11T14:07:48.855Z,10.15
2022-11-11T14:12:52.484Z,10.28
2022-11-11T14:17:54.213Z,10.29
2022-11-11T14:23:15.827Z,10.19
2022-11-11T14:28:26.826Z,9.88
2022-11-11T14:33:38.579Z,9.64
2022-11-11T14:38:57.410Z,9.51
2022-11-11T14:44:27.911Z,9.53
2022-11-11T14:49:54.367Z,9.60
2022-11-11T14:54:59.033Z,9.50
2022-11-11T15:00:03.586Z,9.43
2022-11-11T15:05:15.067Z,9.28
2022-11-11T15:10:25.679Z,9.22
2022-11-11T15:15:39.723Z,9.18
2022-11-11T15:20:58.015Z,9.01
2022-11-11T15:26:09.464Z,8.90
2022-11-11T15:31:32.212Z,8.93
2022-11-11T15:36:57.563Z,9.06
2022-11-11T15:41:59.329Z,9.13
2022-11-11T15:47:01.628Z,9.20
2022-11-11T15:52:04.047Z,9.28
2022-11-11T15:57:35.187Z,9.32
2022-11-11T16:02:36.723Z,9.37
2022-11-11T16:07:43.357Z,9.41
2022-11-11T16:12:53.585Z,9.45
2022-11-11T16:18:00.232Z,9.46
2022-11-11T16:23:07.033Z,9.41
2022-11-11T16:28:12.089Z,9.40
2022-11-11T16:33:39.740Z,9.22
2022-11-11T16:38:41.286Z,8.93
2022-11-11T16:43:43.201Z,8.74
2022-11-11T16:48:48.570Z,8.61
2022-11-11T16:54:08.232Z,8.59
2022-11-11T16:59:16.474Z,8.62
2022-11-11T17:04:17.989Z,8.76
2022-11-11T17:09:36.996Z,8.90
2022-11-11T17:14:39.152Z,8.95
2022-11-11T17:19:40.656Z,8.96
2022-11-11T17:24:42.964Z,9.04
2022-11-11T17:29:44.517Z,9.11
2022-11-11T17:34:46.115Z,9.05
2022-11-11T17:39:47.667Z,8.94
2022-11-11T17:44:49.109Z,8.88
2022-11-11T17:49:56.537Z,8.89
2022-11-11T17:54:58.878Z,8.97
2022-11-11T18:00:00.372Z,8.98
2022-11-11T18:05:01.875Z,8.98
2022-11-11T18:10:03.792Z,8.93
2022-11-11T18:15:06.405Z,8.90
2022-11-11T18:20:08.767Z,8.88
2022-11-11T18:25:11.533Z,8.91
2022-11-11T18:30:13.122Z,8.96
2022-11-11T18:35:14.857Z,8.96
2022-11-11T18:40:16.447Z,8.89
2022-11-11T18:45:18.480Z,8.70
2022-11-11T18:50:19.982Z,8.63
2022-11-11T18:55:21.472Z,8.60
2022-11-11T19:00:22.932Z,8.62
2022-11-11T19:05:24.459Z,8.66
2022-11-11T19:10:26.009Z,8.69
2022-11-11T19:15:27.557Z,8.71
2022-11-11T19:20:29.044Z,8.71
2022-11-11T19:25:32.867Z,8.56
2022-11-11T19:30:35.353Z,8.36
2022-11-11T19:35:36.838Z,8.32
2022-11-11T19:40:38.387Z,8.41
2022-11-11T19:45:39.924Z,8.49
2022-11-11T19:50:42.089Z,8.57
2022-11-11T19:55:43.926Z,8.59
2022-11-11T20:00:47.458Z,8.58
2022-11-11T20:05:49.214Z,8.48
2022-11-11T20:10:50.668Z,8.35
2022-11-11T20:15:52.151Z,8.23
2022-11-11T20:21:00.296Z,8.19
2022-11-11T20:26:05.404Z,8.29
2022-11-11T20:31:09.132Z,8.33
2022-11-11T20:36:13.303Z,8.40
2022-11-11T20:41:17.696Z,8.45
2022-11-11T20:46:20.306Z,8.46
2022-11-11T20:51:24.726Z,8.44
2022-11-11T20:56:26.754Z,8.42
2022-11-11T21:01:29.003Z,8.38
2022-11-11T21:06:30.789Z,8.37
2022-11-11T21:11:32.283Z,8.05
2022-11-11T21:16:33.901Z,7.95
2022-11-11T21:21:35.681Z,7.92
2022-11-11T21:26:37.803Z,7.79
2022-11-11T21:31:40.139Z,7.80
2022-11-11T21:36:42.879Z,7.70
2022-11-11T21:41:44.348Z,7.38
2022-11-11T21:46:45.881Z,7.31
2022-11-11T21:51:48.394Z,7.29
2022-11-11T21:56:49.871Z,7.09
2022-11-11T22:01:51.410Z,6.99
2022-11-11T22:06:52.960Z,7.03
2022-11-11T22:11:54.482Z,6.88
2022-11-11T22:16:55.937Z,6.75
2022-11-11T22:21:57.399Z,6.57
2022-11-11T22:26:59.327Z,6.53
2022-11-11T22:32:00.887Z,6.57
2022-11-11T22:37:03.096Z,6.60
2022-11-11T22:42:04.554Z,6.48
2022-11-11T22:47:06.030Z,6.39
2022-11-11T22:52:07.535Z,6.48
2022-11-11T22:57:09.059Z,6.48
2022-11-11T23:02:10.598Z,6.33
2022-11-11T23:07:12.222Z,6.31
2022-11-11T23:12:13.745Z,6.24
2022-11-11T23:17:15.212Z,6.30
2022-11-11T23:22:16.688Z,6.42
2022-11-11T23:27:18.462Z,6.58
2022-11-11T23:32:19.900Z,6.72
2022-11-11T23:37:21.328Z,6.78
2022-11-11T23:42:22.790Z,6.87
2022-11-11T23:47:24.222Z,7.02
2022-11-11T23:52:25.661Z,7.05
2022-11-11T23:57:27.227Z,7.09
